Time;durP1;ratioP1;P1;durP2;ratioP2;P2;SDS_P1;SDS_P2;PMS_P1;PMS_P2;Temp;Humidity;BMP_temperature;BMP_pressure;BME280_temperature;BME280_humidity;BME280_pressure;Samples;Min_cycle;Max_cycle;Signal;HPM_P1;HPM_P2
2021/09/04 00:02:53;;;;;;;12.60;2.30;;;;;;;13.39;77.21;101853.97;10142639;28;20536;-68
2021/09/04 00:07:50;;;;;;;13.02;3.30;;;;;;;13.29;77.35;101859.69;10133767;28;20038;-68
2021/09/04 00:12:46;;;;;;;12.63;2.90;;;;;;;13.21;77.60;101848.31;10140858;28;20486;-69
2021/09/04 00:17:43;;;;;;;9.52;3.25;;;;;;;13.22;77.82;101849.91;10139594;28;20049;-67
2021/09/04 00:22:40;;;;;;;10.32;2.80;;;;;;;13.20;77.79;101852.16;10135887;28;20104;-69
2021/09/04 00:27:36;;;;;;;17.67;3.05;;;;;;;13.18;77.53;101856.31;10137209;28;20077;-69
2021/09/04 00:32:32;;;;;;;7.88;3.25;;;;;;;13.22;77.48;101849.09;10138736;28;20078;-69
2021/09/04 00:37:29;;;;;;;13.05;3.10;;;;;;;13.24;77.37;101858.66;10140163;28;20461;-67
2021/09/04 00:42:26;;;;;;;6.20;2.45;;;;;;;13.14;77.59;101853.41;10130259;28;20097;-68
2021/09/04 00:47:23;;;;;;;10.60;2.67;;;;;;;13.09;77.66;101848.03;10118673;28;20150;-67
2021/09/04 00:52:19;;;;;;;9.55;2.53;;;;;;;13.10;77.50;101857.06;10134649;28;20043;-67
2021/09/04 00:57:16;;;;;;;8.77;2.85;;;;;;;13.02;77.26;101850.38;10141539;28;20050;-68
2021/09/04 01:02:12;;;;;;;11.18;3.35;;;;;;;12.94;77.59;101851.06;10136181;28;20133;-67
2021/09/04 01:07:09;;;;;;;8.75;2.78;;;;;;;12.92;78.06;101856.88;10144648;28;20523;-67
2021/09/04 01:12:06;;;;;;;8.15;3.10;;;;;;;12.95;78.01;101852.69;10136795;28;20077;-67
2021/09/04 01:17:03;;;;;;;9.18;2.83;;;;;;;12.96;78.15;101846.09;10141061;28;20078;-67
2021/09/04 01:21:59;;;;;;;8.85;3.15;;;;;;;12.94;78.14;101853.81;10153383;28;20096;-67
2021/09/04 01:26:56;;;;;;;8.55;2.38;;;;;;;12.96;78.03;101857.06;10141726;28;20132;-68
2021/09/04 01:31:52;;;;;;;13.00;3.22;;;;;;;12.91;77.64;101851.69;10144389;28;20097;-67
2021/09/04 01:36:52;;;;;;;6.28;2.40;;;;;;;12.91;78.39;101844.28;10151728;28;20050;-67
2021/09/04 01:41:49;;;;;;;11.88;3.00;;;;;;;12.95;78.29;101849.94;10144434;28;20508;-66
2021/09/04 01:46:46;;;;;;;10.15;2.50;;;;;;;12.98;78.34;101841.91;10140797;28;20034;-67
2021/09/04 01:51:42;;;;;;;8.95;3.05;;;;;;;13.06;78.17;101834.88;10144914;28;20049;-68
2021/09/04 01:56:39;;;;;;;10.18;3.08;;;;;;;13.08;77.66;101838.13;10139017;28;20130;-68
2021/09/04 02:01:35;;;;;;;14.23;3.58;;;;;;;13.10;77.68;101830.41;10138916;28;20497;-69
2021/09/04 02:06:33;;;;;;;12.05;3.03;;;;;;;13.19;78.23;101828.56;10146292;28;20042;-65
2021/09/04 02:11:30;;;;;;;12.07;3.20;;;;;;;13.24;77.72;101820.22;10139917;28;20144;-68
2021/09/04 02:16:26;;;;;;;11.75;3.05;;;;;;;13.29;77.41;101818.50;10144570;28;20477;-68
2021/09/04 02:21:23;;;;;;;11.65;2.50;;;;;;;13.33;77.73;101816.78;10135529;28;20043;-66
2021/09/04 02:26:19;;;;;;;9.45;1.98;;;;;;;13.40;77.68;101812.47;10125127;28;20046;-69
2021/09/04 02:31:19;;;;;;;10.02;2.85;;;;;;;13.41;76.15;101816.03;10133290;28;20043;-69
2021/09/04 02:36:16;;;;;;;13.20;2.97;;;;;;;13.44;76.55;101812.66;10133913;28;20141;-68
2021/09/04 02:41:13;;;;;;;9.30;2.53;;;;;;;13.49;76.17;101814.50;10128949;28;20102;-67
2021/09/04 02:46:09;;;;;;;8.80;2.13;;;;;;;13.49;76.88;101798.81;10129855;28;20622;-68
2021/09/04 02:51:06;;;;;;;9.60;2.33;;;;;;;13.55;76.31;101803.03;10145925;28;20042;-68
2021/09/04 02:56:02;;;;;;;7.28;2.42;;;;;;;13.62;76.64;101802.59;10131599;28;20137;-67
2021/09/04 03:00:59;;;;;;;8.80;2.38;;;;;;;13.63;76.17;101799.56;10132823;28;20133;-65
2021/09/04 03:05:58;;;;;;;8.55;1.98;;;;;;;13.69;76.64;101800.22;10143976;28;20046;-66
2021/09/04 03:10:54;;;;;;;10.05;2.35;;;;;;;13.67;75.93;101794.25;10143859;28;20161;-66
2021/09/04 03:15:51;;;;;;;10.65;2.60;;;;;;;13.74;76.68;101802.03;10141301;28;20153;-67
2021/09/04 03:20:47;;;;;;;9.77;2.50;;;;;;;13.77;77.31;101804.19;10136193;28;20110;-67
2021/09/04 03:25:44;;;;;;;5.28;2.33;;;;;;;13.72;76.65;101815.31;10134881;28;20042;-68
2021/09/04 03:30:40;;;;;;;9.35;2.53;;;;;;;13.79;76.95;101801.94;10125338;28;20145;-68
2021/09/04 03:35:37;;;;;;;9.77;3.55;;;;;;;13.82;76.90;101801.31;10139746;28;20050;-68
2021/09/04 03:40:33;;;;;;;9.93;3.28;;;;;;;13.83;76.70;101808.41;10138154;28;20117;-66
2021/09/04 03:45:30;;;;;;;11.98;3.33;;;;;;;13.92;76.70;101801.03;10131766;28;20074;-67
2021/09/04 03:50:26;;;;;;;7.63;3.33;;;;;;;13.96;75.26;101810.28;10139586;28;20049;-66
2021/09/04 03:55:23;;;;;;;9.10;3.78;;;;;;;14.00;76.35;101808.53;10131754;28;20113;-68
2021/09/04 04:00:19;;;;;;;12.88;4.13;;;;;;;13.93;75.36;101808.19;10119729;28;20125;-69
2021/09/04 04:05:16;;;;;;;10.90;4.07;;;;;;;14.01;74.23;101810.16;10134513;28;20047;-66
2021/09/04 04:10:13;;;;;;;7.60;3.78;;;;;;;13.99;74.08;101806.91;10145499;28;20058;-66
2021/09/04 04:15:09;;;;;;;7.82;3.83;;;;;;;13.95;73.56;101803.19;10141134;28;20042;-67
2021/09/04 04:20:06;;;;;;;10.45;3.20;;;;;;;13.94;73.77;101798.78;10138241;28;21596;-66
2021/09/04 04:25:03;;;;;;;10.15;3.30;;;;;;;13.97;73.05;101800.94;10145454;28;20138;-64
2021/09/04 04:30:01;;;;;;;8.82;3.47;;;;;;;13.93;73.14;101808.19;10131811;28;20065;-66
2021/09/04 04:34:57;;;;;;;8.30;3.47;;;;;;;14.03;73.22;101796.09;10134514;28;20038;-66
2021/09/04 04:39:54;;;;;;;10.02;3.80;;;;;;;14.08;72.60;101805.00;10140752;28;20070;-70
2021/09/04 04:44:50;;;;;;;11.40;3.85;;;;;;;14.16;73.07;101813.66;10129696;28;20046;-68
2021/09/04 04:49:46;;;;;;;11.35;4.03;;;;;;;14.16;71.76;101805.41;10141522;28;20493;-69
2021/09/04 04:54:43;;;;;;;14.05;4.75;;;;;;;14.14;70.96;101799.41;10139343;28;20136;-67
2021/09/04 04:59:39;;;;;;;13.40;5.05;;;;;;;14.12;70.36;101807.16;10137271;28;20050;-70
2021/09/04 05:04:36;;;;;;;11.45;4.78;;;;;;;14.07;71.12;101806.16;10145549;28;20485;-68
2021/09/04 05:09:32;;;;;;;12.35;4.05;;;;;;;14.02;71.20;101806.28;10136580;28;20085;-67
2021/09/04 05:14:29;;;;;;;11.98;4.35;;;;;;;14.13;71.29;101806.81;10139361;28;20070;-69
2021/09/04 05:19:25;;;;;;;13.95;5.28;;;;;;;14.09;71.06;101812.16;10142806;28;20473;-68
2021/09/04 05:24:21;;;;;;;10.13;4.85;;;;;;;14.12;70.71;101812.66;10145213;28;20214;-69
2021/09/04 05:29:18;;;;;;;12.43;5.25;;;;;;;14.15;71.00;101803.75;10130243;28;20130;-69
2021/09/04 05:34:14;;;;;;;10.65;4.82;;;;;;;14.22;70.57;101809.63;10138364;28;20046;-70
2021/09/04 05:39:12;;;;;;;13.02;5.82;;;;;;;14.30;69.88;101806.13;10136681;28;20105;-69
2021/09/04 05:44:08;;;;;;;17.55;6.47;;;;;;;14.25;70.02;101808.97;10123252;28;20142;-69
2021/09/04 05:49:05;;;;;;;15.27;5.65;;;;;;;14.29;70.25;101804.47;10116984;28;20571;-69
2021/09/04 05:54:01;;;;;;;14.57;5.53;;;;;;;14.26;69.85;101805.13;10136952;28;20650;-69
2021/09/04 05:58:58;;;;;;;16.17;6.10;;;;;;;14.33;70.04;101810.97;10141888;28;20125;-66
2021/09/04 06:03:55;;;;;;;16.77;7.82;;;;;;;14.45;71.02;101791.91;10145583;28;20046;-68
2021/09/04 06:08:52;;;;;;;14.93;6.50;;;;;;;14.50;69.82;101799.22;10140756;28;20039;-68
2021/09/04 06:13:48;;;;;;;13.30;6.25;;;;;;;14.56;69.82;101808.19;10148552;28;20054;-68
2021/09/04 06:18:45;;;;;;;13.15;6.80;;;;;;;14.61;68.88;101806.09;10147623;28;20146;-68
2021/09/04 06:23:41;;;;;;;15.10;7.13;;;;;;;14.61;69.04;101810.78;10148412;28;20093;-67
2021/09/04 06:28:38;;;;;;;16.50;7.22;;;;;;;14.67;68.28;101820.53;10144826;28;20069;-67
2021/09/04 06:33:34;;;;;;;16.75;7.18;;;;;;;14.69;67.85;101821.00;10147266;28;20073;-64
2021/09/04 06:38:31;;;;;;;20.67;8.10;;;;;;;14.69;67.05;101812.75;10147136;28;20120;-69
2021/09/04 06:43:27;;;;;;;16.13;7.30;;;;;;;14.69;67.22;101819.09;10135734;28;20065;-67
2021/09/04 06:48:24;;;;;;;12.65;6.45;;;;;;;14.78;67.85;101816.34;10140606;28;20074;-67
2021/09/04 06:53:20;;;;;;;15.85;7.63;;;;;;;14.87;66.70;101825.44;10145785;28;20133;-67
2021/09/04 06:58:18;;;;;;;16.33;7.55;;;;;;;14.94;66.39;101820.28;10145255;28;20062;-67
2021/09/04 07:03:15;;;;;;;15.90;7.03;;;;;;;15.03;66.19;101822.25;10145087;28;20047;-65
2021/09/04 07:08:11;;;;;;;14.65;7.95;;;;;;;15.09;66.38;101820.97;10144327;28;20130;-67
2021/09/04 07:13:08;;;;;;;16.48;7.53;;;;;;;15.17;66.36;101822.91;10143157;28;20141;-67
2021/09/04 07:18:04;;;;;;;13.55;7.20;;;;;;;15.17;65.71;101825.66;10147466;28;20093;-68
2021/09/04 07:23:01;;;;;;;17.08;7.07;;;;;;;15.21;65.36;101818.38;10146434;28;20142;-68
2021/09/04 07:27:58;;;;;;;15.70;7.28;;;;;;;15.26;64.14;101820.16;10146091;28;20043;-67
2021/09/04 07:32:54;;;;;;;16.60;7.43;;;;;;;15.26;64.69;101832.00;10144478;28;20142;-68
2021/09/04 07:37:51;;;;;;;18.92;6.30;;;;;;;15.34;63.08;101828.44;10145710;28;20093;-68
2021/09/04 07:42:47;;;;;;;15.02;6.30;;;;;;;15.45;62.23;101822.59;10144362;28;20133;-68
2021/09/04 07:47:44;;;;;;;10.93;5.72;;;;;;;15.57;62.83;101826.34;10125445;28;20093;-68
2021/09/04 07:52:40;;;;;;;11.85;5.22;;;;;;;15.58;60.83;101827.16;10145779;28;20062;-69
2021/09/04 07:57:37;;;;;;;8.55;5.22;;;;;;;15.62;60.65;101828.13;10136839;28;20069;-67
2021/09/04 08:02:33;;;;;;;13.07;5.13;;;;;;;15.68;60.05;101831.53;10142021;28;20741;-67
2021/09/04 08:07:30;;;;;;;13.23;5.68;;;;;;;15.65;60.75;101826.66;10141259;28;20056;-67
2021/09/04 08:12:26;;;;;;;10.68;4.78;;;;;;;15.69;61.46;101825.69;10145734;28;20482;-67
2021/09/04 08:17:23;;;;;;;12.15;4.80;;;;;;;15.78;61.14;101836.72;10136877;28;20138;-67
2021/09/04 08:22:19;;;;;;;12.77;5.03;;;;;;;15.92;59.68;101842.06;10142751;28;20129;-67
2021/09/04 08:27:16;;;;;;;7.65;3.78;;;;;;;15.95;59.93;101836.72;10141404;28;20457;-67
2021/09/04 08:32:12;;;;;;;13.88;4.57;;;;;;;15.98;60.38;101841.56;10135187;28;20081;-67
2021/09/04 08:37:09;;;;;;;13.98;6.30;;;;;;;15.99;61.48;101843.19;10143270;28;20070;-67
2021/09/04 08:42:05;;;;;;;12.13;5.82;;;;;;;16.09;62.32;101855.84;10139351;28;20620;-66
2021/09/04 08:47:02;;;;;;;9.60;5.45;;;;;;;16.11;63.14;101850.81;10139261;28;20089;-66
2021/09/04 08:51:59;;;;;;;13.45;5.55;;;;;;;16.12;63.13;101863.44;10137819;28;20153;-67
2021/09/04 08:56:55;;;;;;;11.30;4.90;;;;;;;16.20;62.04;101859.06;10141552;28;20050;-67
2021/09/04 09:01:52;;;;;;;11.52;5.35;;;;;;;16.39;63.02;101864.22;10139111;28;20179;-66
2021/09/04 09:06:49;;;;;;;9.95;4.57;;;;;;;16.52;62.41;101870.63;10138565;28;20096;-66
2021/09/04 09:11:57;;;;;;;9.23;4.97;;;;;;;16.50;62.54;101873.75;10131091;28;20109;-65
2021/09/04 09:16:58;;;;;;;13.95;5.97;;;;;;;16.53;62.95;101878.59;10141681;28;20101;-68
2021/09/04 09:21:59;;;;;;;13.52;5.82;;;;;;;16.50;63.38;101876.50;10144497;28;20052;-66
2021/09/04 09:27:00;;;;;;;11.32;4.88;;;;;;;16.56;63.29;101875.16;10139220;28;20050;-67
2021/09/04 09:32:11;;;;;;;9.50;4.25;;;;;;;16.66;63.95;101878.72;10140414;28;20061;-66
2021/09/04 09:37:09;;;;;;;13.40;5.82;;;;;;;16.69;63.33;101889.13;10144395;28;20547;-67
2021/09/04 09:42:08;;;;;;;12.43;4.90;;;;;;;16.65;63.55;101882.63;10147424;28;20141;-67
2021/09/04 09:47:07;;;;;;;13.80;6.32;;;;;;;16.59;63.95;101893.03;10147414;28;20038;-66
2021/09/04 09:52:06;;;;;;;12.10;6.03;;;;;;;16.58;65.03;101889.47;10146356;28;20087;-64
2021/09/04 09:57:10;;;;;;;15.90;5.75;;;;;;;16.73;65.01;101892.81;10145668;28;20331;-67
2021/09/04 10:02:10;;;;;;;13.23;5.55;;;;;;;16.89;63.97;101891.16;10147059;28;20416;-67
2021/09/04 10:07:08;;;;;;;12.82;5.30;;;;;;;16.99;63.87;101890.78;10147088;28;20066;-67
2021/09/04 10:12:07;;;;;;;12.90;6.13;;;;;;;16.98;64.19;101894.69;10148984;28;20077;-67
2021/09/04 10:17:05;;;;;;;12.68;5.57;;;;;;;16.98;65.64;101902.16;10144284;28;20137;-65
2021/09/04 10:22:07;;;;;;;15.95;5.75;;;;;;;16.94;64.59;101899.28;10145440;28;20129;-67
2021/09/04 10:27:04;;;;;;;14.75;5.30;;;;;;;16.93;64.85;101894.88;10146976;28;20089;-65
2021/09/04 10:32:04;;;;;;;14.25;5.13;;;;;;;16.89;65.10;101906.91;10147180;28;20104;-67
2021/09/04 10:37:07;;;;;;;13.50;5.13;;;;;;;17.01;66.06;101905.09;10143914;28;20177;-66
2021/09/04 10:42:03;;;;;;;12.57;6.23;;;;;;;16.99;64.39;101899.06;10145248;28;20583;-65
2021/09/04 10:47:02;;;;;;;10.15;5.22;;;;;;;17.15;65.07;101890.19;10147235;28;20121;-66
2021/09/04 10:51:58;;;;;;;13.02;5.40;;;;;;;17.21;64.01;101880.56;10138756;28;20560;-66
2021/09/04 10:57:16;;;;;;;15.68;4.82;;;;;;;17.37;63.65;101878.84;10147001;28;20125;-66
2021/09/04 11:02:19;;;;;;;10.70;4.47;;;;;;;17.76;62.51;101867.66;10143978;28;20390;-66
2021/09/04 11:07:16;;;;;;;11.68;5.38;;;;;;;17.79;61.38;101867.78;10139313;28;20089;-67
2021/09/04 11:12:14;;;;;;;10.00;3.58;;;;;;;18.10;59.57;101866.53;10141334;28;20135;-67
2021/09/04 11:17:17;;;;;;;8.30;3.35;;;;;;;18.18;58.70;101864.84;10142438;28;20484;-67
2021/09/04 11:22:14;;;;;;;10.07;2.92;;;;;;;18.44;55.42;101875.63;10141091;28;20130;-67
2021/09/04 11:27:16;;;;;;;8.35;3.33;;;;;;;18.98;56.89;101875.44;10139419;28;20050;-66
2021/09/04 11:32:14;;;;;;;8.38;3.17;;;;;;;19.21;55.42;101880.50;10142087;28;20092;-67
2021/09/04 11:37:23;;;;;;;9.23;3.63;;;;;;;19.01;55.12;101876.75;10140319;28;20165;-67
2021/09/04 11:42:25;;;;;;;8.95;2.78;;;;;;;19.64;55.84;101887.38;10139954;28;20137;-66
2021/09/04 11:47:22;;;;;;;7.03;3.28;;;;;;;19.29;54.07;101887.91;10143106;28;20129;-68
2021/09/04 11:52:22;;;;;;;7.38;2.95;;;;;;;19.02;56.63;101890.22;10142140;28;20141;-68
2021/09/04 11:57:29;;;;;;;7.20;3.05;;;;;;;18.74;57.48;101881.78;10144635;28;20500;-68
2021/09/04 12:02:26;;;;;;;6.88;2.67;;;;;;;18.67;57.34;101871.25;10137066;28;20552;-66
2021/09/04 12:07:27;;;;;;;8.07;2.70;;;;;;;18.70;57.34;101869.75;10144959;28;20078;-68
2021/09/04 12:12:25;;;;;;;7.70;2.47;;;;;;;18.90;57.48;101871.66;10138883;28;20393;-68
2021/09/04 12:17:22;;;;;;;8.13;2.30;;;;;;;19.90;57.16;101873.06;10141759;28;20065;-69
2021/09/04 12:22:30;;;;;;;7.15;2.45;;;;;;;20.16;55.31;101881.72;10135174;28;20080;-67
2021/09/04 12:28:03;;;;;;;8.60;3.00;;;;;;;19.91;56.56;101886.59;10141509;28;20500;-66
2021/09/04 12:33:10;;;;;;;7.07;2.40;;;;;;;19.50;54.57;101883.00;10118544;28;20074;-67
2021/09/04 12:38:15;;;;;;;8.80;2.63;;;;;;;19.33;57.80;101894.34;10127361;28;20133;-66
2021/09/04 12:43:11;;;;;;;8.60;2.72;;;;;;;19.31;55.58;101891.13;10126383;28;20046;-64
2021/09/04 12:48:07;;;;;;;10.95;3.03;;;;;;;19.27;54.46;101895.75;10139524;28;20157;-68
2021/09/04 12:53:08;;;;;;;6.78;2.53;;;;;;;20.09;54.39;101889.06;10133162;28;20532;-67
2021/09/04 12:58:08;;;;;;;8.35;2.53;;;;;;;20.26;52.12;101893.47;10139713;28;20039;-68
2021/09/04 13:03:05;;;;;;;7.53;3.15;;;;;;;20.23;52.19;101891.41;10140682;28;21456;-67
2021/09/04 13:08:03;;;;;;;7.05;2.83;;;;;;;20.12;52.19;101896.66;10144887;28;20381;-65
2021/09/04 13:12:59;;;;;;;10.05;2.95;;;;;;;19.93;53.67;101889.00;10136888;28;20133;-68
2021/09/04 13:17:56;;;;;;;7.60;2.85;;;;;;;19.61;53.08;101879.72;10139877;28;20129;-68
2021/09/04 13:22:52;;;;;;;8.73;3.05;;;;;;;19.76;55.17;101873.47;10138094;28;20081;-65
2021/09/04 13:27:49;;;;;;;6.97;2.88;;;;;;;20.10;54.99;101882.34;10136279;28;20043;-67
2021/09/04 13:32:45;;;;;;;10.27;6.30;;;;;;;20.70;54.45;101877.59;10138113;28;20047;-67
2021/09/04 13:37:44;;;;;;;7.82;3.20;;;;;;;21.21;53.03;101868.44;10142919;28;20046;-68
2021/09/04 13:42:41;;;;;;;8.70;3.10;;;;;;;21.83;50.23;101868.59;10130394;28;20717;-68
2021/09/04 13:47:37;;;;;;;7.43;2.95;;;;;;;21.95;47.82;101862.88;10132772;28;20042;-65
2021/09/04 13:52:34;;;;;;;9.00;3.53;;;;;;;21.66;48.54;101866.28;10127561;28;20054;-68
2021/09/04 13:57:30;;;;;;;7.95;3.05;;;;;;;21.10;50.32;101862.66;10138234;28;20134;-68
2021/09/04 14:02:27;;;;;;;6.68;3.40;;;;;;;21.00;48.98;101868.75;10140119;28;20150;-67
2021/09/04 14:07:24;;;;;;;7.85;3.08;;;;;;;21.16;51.61;101861.19;10139444;28;20546;-67
2021/09/04 14:12:21;;;;;;;11.35;3.30;;;;;;;21.14;51.11;101852.44;10142339;28;20137;-66
2021/09/04 14:17:17;;;;;;;8.38;2.75;;;;;;;21.29;51.89;101847.97;10136397;28;20136;-69
2021/09/04 14:22:13;;;;;;;10.02;3.47;;;;;;;21.17;48.86;101851.69;10140929;28;20069;-70
2021/09/04 14:27:10;;;;;;;9.50;3.65;;;;;;;21.14;49.24;101846.88;10141931;28;20076;-68
2021/09/04 14:32:06;;;;;;;9.02;3.85;;;;;;;21.13;50.53;101848.03;10136532;28;20398;-68
2021/09/04 14:37:03;;;;;;;8.63;5.10;;;;;;;21.12;51.28;101854.75;10146726;28;20137;-67
2021/09/04 14:41:59;;;;;;;9.05;4.35;;;;;;;21.27;50.55;101855.88;10138380;28;20129;-68
2021/09/04 14:46:56;;;;;;;8.02;3.17;;;;;;;21.26;50.93;101847.88;10135766;28;20126;-68
2021/09/04 14:51:52;;;;;;;8.63;3.67;;;;;;;21.19;50.49;101846.59;10146952;28;20101;-65
2021/09/04 14:56:49;;;;;;;8.38;3.72;;;;;;;21.04;52.92;101849.41;10138399;28;20133;-67
2021/09/04 15:01:45;;;;;;;9.07;2.88;;;;;;;20.73;51.58;101843.53;10144345;28;20129;-65
2021/09/04 15:06:42;;;;;;;11.95;3.75;;;;;;;20.45;52.28;101848.34;10135800;28;20069;-67
2021/09/04 15:11:39;;;;;;;10.10;3.38;;;;;;;20.52;52.14;101843.78;10145170;28;20578;-68
2021/09/04 15:16:35;;;;;;;11.82;3.58;;;;;;;20.64;52.52;101845.69;10137575;28;20050;-66
2021/09/04 15:21:32;;;;;;;9.45;5.05;;;;;;;20.83;52.06;101852.47;10149274;28;20046;-67
2021/09/04 15:26:28;;;;;;;15.07;5.63;;;;;;;20.99;50.33;101850.47;10142003;28;20141;-68
2021/09/04 15:31:25;;;;;;;11.18;4.93;;;;;;;21.02;49.75;101838.63;10145218;28;20141;-65
2021/09/04 15:36:21;;;;;;;9.65;4.03;;;;;;;21.24;50.21;101851.06;10135960;28;20217;-67
2021/09/04 15:41:18;;;;;;;11.15;4.65;;;;;;;21.24;50.79;101845.50;10137643;28;20152;-68
2021/09/04 15:46:14;;;;;;;11.75;3.63;;;;;;;21.01;53.68;101837.03;10130672;28;20054;-68
2021/09/04 15:51:11;;;;;;;9.20;3.95;;;;;;;21.06;53.85;101841.50;10126614;28;20054;-66
2021/09/04 15:56:07;;;;;;;12.60;4.55;;;;;;;20.94;51.71;101842.44;10138953;28;20081;-65
2021/09/04 16:01:04;;;;;;;10.88;4.40;;;;;;;20.81;56.23;101845.28;10112830;28;20042;-67
2021/09/04 16:06:01;;;;;;;9.77;4.20;;;;;;;20.92;56.47;101841.97;10141285;28;20093;-67
2021/09/04 16:10:58;;;;;;;8.52;3.63;;;;;;;20.76;56.79;101848.34;10138191;28;20054;-67
2021/09/04 16:15:54;;;;;;;9.40;3.95;;;;;;;20.57;56.01;101840.75;10132876;28;20516;-67
2021/09/04 16:20:51;;;;;;;8.10;3.72;;;;;;;20.48;58.22;101853.19;10132270;28;20056;-66
2021/09/04 16:25:47;;;;;;;13.07;4.45;;;;;;;20.28;57.45;101850.28;10140890;28;20069;-67
2021/09/04 16:30:44;;;;;;;11.55;4.30;;;;;;;20.10;57.64;101849.03;10136079;28;20539;-67
2021/09/04 16:35:41;;;;;;;12.90;5.63;;;;;;;19.92;58.26;101854.09;10139951;28;20053;-65
2021/09/04 16:40:37;;;;;;;12.30;4.97;;;;;;;19.74;57.64;101854.38;10140066;28;20069;-65
2021/09/04 16:45:34;;;;;;;13.30;4.72;;;;;;;19.61;58.20;101851.97;10141029;28;20129;-67
2021/09/04 16:50:31;;;;;;;12.43;5.10;;;;;;;19.47;58.98;101861.53;10139725;28;20050;-66
2021/09/04 16:55:27;;;;;;;10.13;5.05;;;;;;;19.34;59.79;101862.69;10143293;28;20116;-67
2021/09/04 17:00:23;;;;;;;12.07;5.80;;;;;;;19.20;60.48;101868.63;10125981;28;20051;-65
2021/09/04 17:05:20;;;;;;;14.98;5.68;;;;;;;19.08;60.27;101874.19;10131617;28;20090;-67
2021/09/04 17:10:17;;;;;;;13.02;4.82;;;;;;;18.95;60.87;101878.13;10138818;28;20415;-67
2021/09/04 17:15:13;;;;;;;10.75;5.45;;;;;;;18.84;61.41;101880.53;10137650;28;20116;-67
2021/09/04 17:20:10;;;;;;;13.43;6.72;;;;;;;18.70;62.13;101881.66;10140066;28;20523;-66
2021/09/04 17:25:07;;;;;;;10.75;6.43;;;;;;;18.58;62.37;101887.19;10134957;28;20038;-67
2021/09/04 17:30:05;;;;;;;16.63;6.50;;;;;;;18.46;63.73;101887.16;10134692;28;20532;-68
2021/09/04 17:35:03;;;;;;;16.65;6.88;;;;;;;18.35;63.63;101891.53;10133080;28;20112;-67
2021/09/04 17:39:59;;;;;;;11.50;6.20;;;;;;;18.15;64.06;101907.84;10132463;28;20108;-66
2021/09/04 17:44:57;;;;;;;14.73;5.63;;;;;;;18.10;64.13;101905.28;10133894;28;20050;-66
2021/09/04 17:49:53;;;;;;;11.73;5.22;;;;;;;18.06;63.93;101902.41;10137770;28;20043;-66
2021/09/04 17:54:51;;;;;;;9.48;5.50;;;;;;;18.01;64.04;101912.84;10131576;28;20129;-66
2021/09/04 17:59:47;;;;;;;15.20;6.95;;;;;;;17.95;64.36;101919.75;10141699;28;20113;-66
2021/09/04 18:04:44;;;;;;;17.23;6.97;;;;;;;17.86;64.60;101923.41;10138715;28;20108;-66
2021/09/04 18:09:40;;;;;;;12.18;7.32;;;;;;;17.73;65.03;101932.75;10144672;28;20689;-67
2021/09/04 18:14:37;;;;;;;13.07;6.72;;;;;;;17.61;65.14;101939.00;10147499;28;20420;-65
2021/09/04 18:19:34;;;;;;;13.68;7.38;;;;;;;17.55;65.44;101950.63;10144412;28;20053;-65
2021/09/04 18:24:31;;;;;;;16.10;7.70;;;;;;;17.53;66.08;101963.97;10138124;28;20062;-67
2021/09/04 18:29:27;;;;;;;16.73;7.63;;;;;;;17.46;66.51;101970.84;10128099;28;20526;-65
2021/09/04 18:34:24;;;;;;;13.32;8.10;;;;;;;17.33;67.19;101973.84;10143892;28;20054;-65
2021/09/04 18:39:21;;;;;;;24.70;8.65;;;;;;;17.33;67.31;101976.59;10144774;28;20119;-67
2021/09/04 18:44:17;;;;;;;17.48;8.23;;;;;;;17.21;67.17;101980.06;10145104;28;20417;-66
2021/09/04 18:49:14;;;;;;;18.67;8.25;;;;;;;17.14;68.63;101991.63;10140128;28;20129;-67
2021/09/04 18:54:10;;;;;;;19.15;9.35;;;;;;;17.09;69.16;101999.31;10144317;28;20066;-67
2021/09/04 18:59:07;;;;;;;15.68;9.30;;;;;;;17.00;69.20;101997.38;10139543;28;20034;-68
2021/09/04 19:04:03;;;;;;;14.20;8.35;;;;;;;16.94;69.55;102007.00;10142531;28;20046;-66
2021/09/04 19:09:00;;;;;;;17.92;8.48;;;;;;;16.85;69.36;102014.50;10135548;28;20056;-68
2021/09/04 19:13:56;;;;;;;14.98;8.02;;;;;;;16.78;70.50;102012.22;10121438;28;20077;-66
2021/09/04 19:18:53;;;;;;;13.73;7.60;;;;;;;16.70;70.54;102032.38;10143362;28;20034;-66
2021/09/04 19:23:50;;;;;;;11.82;6.70;;;;;;;16.63;71.53;102021.81;10143223;28;20050;-65
2021/09/04 19:28:46;;;;;;;14.13;7.60;;;;;;;16.61;72.02;102029.63;10141957;28;20097;-67
2021/09/04 19:33:43;;;;;;;11.95;6.57;;;;;;;16.55;72.31;102030.94;10143579;28;20459;-65
2021/09/04 19:38:39;;;;;;;13.40;6.93;;;;;;;16.46;72.75;102032.09;10142740;28;20136;-68
2021/09/04 19:43:36;;;;;;;12.35;7.05;;;;;;;16.46;72.99;102037.59;10140007;28;20064;-69
2021/09/04 19:48:34;;;;;;;10.35;6.38;;;;;;;16.38;73.47;102033.69;10131647;28;20104;-65
2021/09/04 19:53:31;;;;;;;15.70;6.40;;;;;;;16.27;74.06;102040.69;10132639;28;20042;-67
2021/09/04 19:58:28;;;;;;;14.35;7.28;;;;;;;16.27;74.37;102040.69;10129799;28;20073;-64
2021/09/04 20:03:24;;;;;;;14.35;7.88;;;;;;;16.20;74.42;102047.50;10132576;28;20038;-67
2021/09/04 20:08:21;;;;;;;11.90;7.07;;;;;;;16.10;74.57;102047.81;10136726;28;20053;-66
2021/09/04 20:13:18;;;;;;;19.50;8.10;;;;;;;16.01;74.40;102046.97;10140752;28;20057;-66
2021/09/04 20:18:16;;;;;;;20.10;7.88;;;;;;;15.92;74.56;102049.75;10140295;28;20093;-64
2021/09/04 20:23:12;;;;;;;19.33;7.90;;;;;;;15.91;75.08;102055.56;10142361;28;20686;-67
2021/09/04 20:28:09;;;;;;;20.77;9.05;;;;;;;15.84;75.32;102060.75;10136883;28;20042;-65
2021/09/04 20:33:06;;;;;;;18.75;9.20;;;;;;;15.78;75.20;102058.16;10137636;28;20066;-66
2021/09/04 20:38:07;;;;;;;16.15;8.82;;;;;;;15.71;75.38;102057.81;10145564;28;20070;-64
2021/09/04 20:43:04;;;;;;;17.77;8.52;;;;;;;15.69;75.85;102065.56;10138733;28;20074;-66
2021/09/04 20:48:00;;;;;;;15.88;8.20;;;;;;;15.71;76.36;102068.00;10140005;28;20058;-68
2021/09/04 20:52:57;;;;;;;15.05;9.13;;;;;;;15.63;76.13;102066.81;10144881;28;20523;-67
2021/09/04 20:57:53;;;;;;;14.23;8.43;;;;;;;15.61;77.16;102071.84;10126507;28;20129;-67
2021/09/04 21:02:50;;;;;;;15.20;8.88;;;;;;;15.58;77.78;102070.53;10131037;28;20050;-68
2021/09/04 21:07:47;;;;;;;15.85;8.32;;;;;;;15.53;78.06;102072.66;10130932;28;20081;-69
2021/09/04 21:12:43;;;;;;;19.20;9.40;;;;;;;15.49;78.45;102072.44;10138384;28;20073;-69
2021/09/04 21:17:39;;;;;;;15.85;10.23;;;;;;;15.48;78.76;102075.50;10139388;28;20089;-69
2021/09/04 21:22:36;;;;;;;16.83;10.63;;;;;;;15.45;78.77;102084.44;10134298;28;20076;-71
2021/09/04 21:27:32;;;;;;;20.00;9.68;;;;;;;15.35;79.17;102086.34;10131962;28;20050;-70
2021/09/04 21:32:29;;;;;;;16.67;9.82;;;;;;;15.29;79.18;102087.63;10134995;28;20497;-69
2021/09/04 21:37:26;;;;;;;16.00;8.38;;;;;;;15.25;79.15;102089.38;10143259;28;20137;-70
2021/09/04 21:42:22;;;;;;;15.88;9.13;;;;;;;15.24;79.60;102100.69;10142151;28;20492;-68
2021/09/04 21:47:19;;;;;;;19.67;8.73;;;;;;;15.20;79.76;102092.28;10150812;28;20042;-70
2021/09/04 21:52:17;;;;;;;16.13;8.13;;;;;;;15.17;80.09;102092.88;10146742;28;20049;-69
2021/09/04 21:57:14;;;;;;;15.13;9.00;;;;;;;15.10;80.15;102098.03;10141595;28;20049;-69
2021/09/04 22:02:15;;;;;;;17.33;8.55;;;;;;;15.04;80.25;102100.13;10142054;28;20100;-70
2021/09/04 22:07:14;;;;;;;17.30;9.73;;;;;;;15.02;80.12;102112.56;10151260;28;20716;-72
2021/09/04 22:12:10;;;;;;;13.32;7.75;;;;;;;14.98;80.22;102122.59;10137122;28;20070;-71
2021/09/04 22:17:07;;;;;;;13.55;7.60;;;;;;;14.91;80.61;102123.03;10145017;28;20416;-72
2021/09/04 22:22:03;;;;;;;15.05;7.63;;;;;;;14.84;80.59;102122.66;10149755;28;20066;-71
2021/09/04 22:27:00;;;;;;;18.08;8.18;;;;;;;14.80;80.73;102122.44;10133341;28;20047;-71
2021/09/04 22:31:56;;;;;;;13.95;8.05;;;;;;;14.73;80.84;102130.31;10142439;28;20109;-71
2021/09/04 22:42:08;;;;;;;14.98;8.43;;;;;;;14.61;80.78;102130.06;10138993;28;20117;-70